createdAt,value
2022-12-19T00:00:48.585Z,1024.27
2022-12-19T00:01:48.675Z,1024.31
2022-12-19T00:02:48.633Z,1024.25
2022-12-19T00:03:48.597Z,1024.25
2022-12-19T00:04:48.546Z,1024.25
2022-12-19T00:05:48.522Z,1024.21
2022-12-19T00:06:48.516Z,1024.28
2022-12-19T00:07:48.643Z,1024.27
2022-12-19T00:08:48.520Z,1024.21
2022-12-19T00:09:48.498Z,1024.19
2022-12-19T00:10:48.479Z,1024.22
2022-12-19T00:11:48.535Z,1024.19
2022-12-19T00:12:48.455Z,1024.20
2022-12-19T00:13:48.433Z,1024.21
2022-12-19T00:14:48.441Z,1024.21
2022-12-19T00:15:48.562Z,1024.08
2022-12-19T00:16:48.411Z,1024.02
2022-12-19T00:17:48.458Z,1024.02
2022-12-19T00:18:48.412Z,1023.93
2022-12-19T00:19:48.385Z,1023.85
2022-12-19T00:20:48.386Z,1023.82
2022-12-19T00:21:48.364Z,1023.81
2022-12-19T00:22:48.363Z,1023.70
2022-12-19T00:23:48.446Z,1023.79
2022-12-19T00:24:48.320Z,1023.79
2022-12-19T00:25:48.331Z,1023.74
2022-12-19T00:26:48.325Z,1023.75
2022-12-19T00:27:48.296Z,1023.73
2022-12-19T00:28:48.326Z,1023.73
2022-12-19T00:29:48.278Z,1023.67
2022-12-19T00:30:48.285Z,1023.62
2022-12-19T00:31:48.342Z,1023.60
2022-12-19T00:32:48.288Z,1023.64
2022-12-19T00:33:48.247Z,1023.59
2022-12-19T00:34:48.250Z,1023.61
2022-12-19T00:35:48.227Z,1023.55
2022-12-19T00:36:48.251Z,1023.47
2022-12-19T00:37:49.691Z,1023.50
2022-12-19T00:38:48.219Z,1023.46
2022-12-19T00:39:48.293Z,1023.52
2022-12-19T00:40:48.165Z,1023.49
2022-12-19T00:41:48.207Z,1023.49
2022-12-19T00:42:53.425Z,1023.42
2022-12-19T00:43:49.127Z,1023.48
2022-12-19T00:44:48.114Z,1023.52
2022-12-19T00:45:48.192Z,1023.43
2022-12-19T00:46:52.313Z,1023.49
2022-12-19T00:47:48.103Z,1023.44
2022-12-19T00:48:48.124Z,1023.43
2022-12-19T00:49:48.088Z,1023.42
2022-12-19T00:50:48.076Z,1023.46
2022-12-19T00:51:48.078Z,1023.41
2022-12-19T00:52:48.055Z,1023.45
2022-12-19T00:53:48.424Z,1023.38
2022-12-19T00:54:48.102Z,1023.41
2022-12-19T00:55:48.132Z,1023.44
2022-12-19T00:56:48.002Z,1023.47
2022-12-19T00:57:48.015Z,1023.39
2022-12-19T00:58:48.003Z,1023.30
2022-12-19T00:59:47.974Z,1023.33
2022-12-19T01:00:48.034Z,1023.31
2022-12-19T01:01:48.127Z,1023.23
2022-12-19T01:02:48.132Z,1023.26
2022-12-19T01:04:11.262Z,1023.20
2022-12-19T01:04:48.938Z,1023.11
2022-12-19T01:05:47.902Z,1023.10
2022-12-19T01:06:47.891Z,1023.08
2022-12-19T01:07:47.887Z,1023.04
2022-12-19T01:08:47.877Z,1023.09
2022-12-19T01:09:47.858Z,1023.21
2022-12-19T01:10:47.859Z,1023.17
2022-12-19T01:11:47.953Z,1023.19
2022-12-19T01:12:47.832Z,1023.20
2022-12-19T01:13:47.847Z,1023.23
2022-12-19T01:14:47.806Z,1023.20
2022-12-19T01:15:47.807Z,1023.19
2022-12-19T01:16:47.980Z,1023.17
2022-12-19T01:17:47.818Z,1023.22
2022-12-19T01:18:47.777Z,1023.16
2022-12-19T01:19:47.806Z,1023.18
2022-12-19T01:20:47.763Z,1023.28
2022-12-19T01:21:47.740Z,1023.32
2022-12-19T01:22:47.725Z,1023.34
2022-12-19T01:23:47.722Z,1023.34
2022-12-19T01:24:47.707Z,1023.34
2022-12-19T01:25:47.756Z,1023.29
2022-12-19T01:26:47.689Z,1023.25
2022-12-19T01:27:47.798Z,1023.10
2022-12-19T01:28:47.675Z,1023.05
2022-12-19T01:29:52.782Z,1023.08
2022-12-19T01:30:48.710Z,1023.05
2022-12-19T01:31:47.731Z,1022.95
2022-12-19T01:32:47.634Z,1022.86
2022-12-19T01:33:47.670Z,1022.80
2022-12-19T01:34:47.607Z,1022.90
2022-12-19T01:35:47.597Z,1022.84
2022-12-19T01:36:47.587Z,1022.88
2022-12-19T01:37:47.596Z,1022.88
2022-12-19T01:38:47.600Z,1022.80
2022-12-19T01:39:47.566Z,1022.74
2022-12-19T01:40:47.555Z,1022.74
2022-12-19T01:41:47.539Z,1022.72
2022-12-19T01:42:47.543Z,1022.77
2022-12-19T01:43:47.642Z,1022.73
2022-12-19T01:44:47.507Z,1022.76
2022-12-19T01:45:47.620Z,1022.75
2022-12-19T01:46:47.516Z,1022.73
2022-12-19T01:47:47.511Z,1022.70
2022-12-19T01:48:47.474Z,1022.66
2022-12-19T01:49:47.468Z,1022.68
2022-12-19T01:50:53.583Z,1022.71
2022-12-19T01:51:48.462Z,1022.60
2022-12-19T01:52:47.419Z,1022.52
2022-12-19T01:53:48.600Z,1022.58
2022-12-19T01:54:47.418Z,1022.47
2022-12-19T01:55:47.407Z,1022.49
2022-12-19T01:56:47.371Z,1022.48
2022-12-19T01:57:47.362Z,1022.36
2022-12-19T01:58:47.329Z,1022.40
2022-12-19T01:59:47.447Z,1022.42
2022-12-19T02:00:47.350Z,1022.40
2022-12-19T02:01:51.611Z,1022.29
2022-12-19T02:02:47.414Z,1022.33
2022-12-19T02:03:47.284Z,1022.37
2022-12-19T02:04:47.273Z,1022.37
2022-12-19T02:05:47.252Z,1022.31
2022-12-19T02:06:47.267Z,1022.32
2022-12-19T02:07:47.246Z,1022.34
2022-12-19T02:08:47.242Z,1022.35
2022-12-19T02:09:47.213Z,1022.36
2022-12-19T02:10:47.208Z,1022.33
2022-12-19T02:11:47.199Z,1022.27
2022-12-19T02:12:47.204Z,1022.32
2022-12-19T02:13:47.478Z,1022.31
2022-12-19T02:14:47.187Z,1022.29
2022-12-19T02:15:47.248Z,1022.30
2022-12-19T02:16:47.234Z,1022.23
2022-12-19T02:17:48.733Z,1022.30
2022-12-19T02:18:48.162Z,1022.24
2022-12-19T02:19:47.809Z,1022.23
2022-12-19T02:20:47.113Z,1022.16
2022-12-19T02:21:47.094Z,1022.17
2022-12-19T02:22:47.089Z,1022.17
2022-12-19T02:23:47.291Z,1022.16
2022-12-19T02:24:47.086Z,1022.13
2022-12-19T02:25:47.085Z,1022.08
2022-12-19T02:26:47.053Z,1022.07
2022-12-19T02:27:47.041Z,1022.07
2022-12-19T02:28:47.123Z,1022.09
2022-12-19T02:29:47.040Z,1022.03
2022-12-19T02:30:47.013Z,1022.06
2022-12-19T02:31:47.194Z,1022.02
2022-12-19T02:32:47.010Z,1022.05
2022-12-19T02:33:46.988Z,1022.06
2022-12-19T02:34:46.988Z,1022.02
2022-12-19T02:35:46.963Z,1022.05
2022-12-19T02:36:46.957Z,1022.01
2022-12-19T02:37:46.948Z,1022.07
2022-12-19T02:38:47.086Z,1022.08
2022-12-19T02:39:46.933Z,1022.07
2022-12-19T02:40:50.039Z,1022.04
2022-12-19T02:41:48.008Z,1022.10
2022-12-19T02:42:46.896Z,1022.12
2022-12-19T02:43:47.653Z,1022.08
2022-12-19T02:44:46.890Z,1022.04
2022-12-19T02:45:46.918Z,1022.10
2022-12-19T02:46:46.918Z,1022.13
2022-12-19T02:47:46.959Z,1022.09
2022-12-19T02:48:46.865Z,1022.14
2022-12-19T02:49:47.007Z,1022.13
2022-12-19T02:50:46.903Z,1022.16
2022-12-19T02:51:46.837Z,1022.11
2022-12-19T02:52:46.827Z,1022.11
2022-12-19T02:53:46.786Z,1022.06
2022-12-19T02:54:46.775Z,1022.11
2022-12-19T02:55:46.795Z,1022.13
2022-12-19T02:56:46.779Z,1022.11
2022-12-19T02:57:46.748Z,1022.07
2022-12-19T02:58:46.735Z,1022.14
2022-12-19T02:59:46.770Z,1022.11
2022-12-19T03:00:46.754Z,1022.10
2022-12-19T03:01:46.938Z,1022.12
2022-12-19T03:02:51.379Z,1022.08
2022-12-19T03:03:47.875Z,1022.09
2022-12-19T03:04:46.836Z,1022.09
2022-12-19T03:05:46.758Z,1021.97
2022-12-19T03:06:46.675Z,1022.07
2022-12-19T03:07:46.659Z,1022.06
2022-12-19T03:08:46.658Z,1021.97
2022-12-19T03:09:46.634Z,1022.02
2022-12-19T03:10:46.631Z,1021.91
2022-12-19T03:11:46.625Z,1021.87
2022-12-19T03:12:46.607Z,1021.90
2022-12-19T03:13:46.597Z,1021.92
2022-12-19T03:14:46.595Z,1021.92
2022-12-19T03:15:46.626Z,1021.85
2022-12-19T03:16:46.648Z,1021.92
2022-12-19T03:17:46.702Z,1021.88
2022-12-19T03:18:46.546Z,1021.93
2022-12-19T03:19:46.664Z,1021.94
2022-12-19T03:20:46.682Z,1021.93
2022-12-19T03:21:46.526Z,1021.92
2022-12-19T03:22:46.522Z,1021.80
2022-12-19T03:23:46.516Z,1021.83
2022-12-19T03:24:47.349Z,1021.79
2022-12-19T03:25:46.471Z,1021.75
2022-12-19T03:26:46.487Z,1021.72
2022-12-19T03:27:46.459Z,1021.65
2022-12-19T03:28:46.454Z,1021.58
2022-12-19T03:29:46.467Z,1021.64
2022-12-19T03:30:46.466Z,1021.60
2022-12-19T03:31:46.424Z,1021.59
2022-12-19T03:32:46.419Z,1021.72
2022-12-19T03:33:46.394Z,1021.76
2022-12-19T03:34:46.392Z,1021.69
2022-12-19T03:35:47.467Z,1021.76
2022-12-19T03:36:46.381Z,1021.76
2022-12-19T03:37:46.372Z,1021.75
2022-12-19T03:38:46.429Z,1021.73
2022-12-19T03:39:46.340Z,1021.76
2022-12-19T03:40:46.358Z,1021.68
2022-12-19T03:41:46.397Z,1021.76
2022-12-19T03:42:46.314Z,1021.69
2022-12-19T03:43:46.298Z,1021.56
2022-12-19T03:44:46.283Z,1021.63
2022-12-19T03:45:46.335Z,1021.65
2022-12-19T03:46:46.275Z,1021.62
2022-12-19T03:47:46.261Z,1021.54
2022-12-19T03:48:46.262Z,1021.63
2022-12-19T03:49:46.236Z,1021.61
2022-12-19T03:50:46.310Z,1021.51
2022-12-19T03:51:46.349Z,1021.54
2022-12-19T03:52:46.281Z,1021.50
2022-12-19T03:53:46.217Z,1021.45
2022-12-19T03:54:46.199Z,1021.45
2022-12-19T03:55:46.193Z,1021.41
2022-12-19T03:56:46.169Z,1021.53
2022-12-19T03:57:46.178Z,1021.55
2022-12-19T03:58:46.195Z,1021.40
2022-12-19T03:59:46.158Z,1021.43
2022-12-19T04:00:46.124Z,1021.36
2022-12-19T04:01:46.211Z,1021.40
2022-12-19T04:02:46.118Z,1021.38
2022-12-19T04:03:46.156Z,1021.42
2022-12-19T04:04:46.160Z,1021.40
2022-12-19T04:05:46.075Z,1021.41
2022-12-19T04:06:46.068Z,1021.43
2022-12-19T04:07:46.506Z,1021.36
2022-12-19T04:08:46.049Z,1021.44
2022-12-19T04:09:46.048Z,1021.47
2022-12-19T04:10:46.233Z,1021.43
2022-12-19T04:11:46.010Z,1021.40
2022-12-19T04:12:46.004Z,1021.41
2022-12-19T04:13:45.994Z,1021.52
2022-12-19T04:14:45.994Z,1021.52
2022-12-19T04:15:46.008Z,1021.58
2022-12-19T04:16:46.007Z,1021.56
2022-12-19T04:17:45.958Z,1021.48
2022-12-19T04:18:45.981Z,1021.51
2022-12-19T04:19:45.947Z,1021.54
2022-12-19T04:20:45.924Z,1021.46
2022-12-19T04:21:45.916Z,1021.54
2022-12-19T04:22:46.031Z,1021.46
2022-12-19T04:23:46.016Z,1021.57
2022-12-19T04:24:45.892Z,1021.64
2022-12-19T04:25:45.892Z,1021.65
2022-12-19T04:26:45.873Z,1021.70
2022-12-19T04:27:45.876Z,1021.67
2022-12-19T04:28:45.841Z,1021.73
2022-12-19T04:29:46.044Z,1021.71
2022-12-19T04:30:45.913Z,1021.71
2022-12-19T04:31:45.815Z,1021.73
2022-12-19T04:32:45.821Z,1021.80
2022-12-19T04:33:45.789Z,1021.69
2022-12-19T04:34:45.785Z,1021.68
2022-12-19T04:35:45.891Z,1021.69
2022-12-19T04:36:45.769Z,1021.65
2022-12-19T04:37:45.788Z,1021.63
2022-12-19T04:38:45.763Z,1021.58
2022-12-19T04:39:45.843Z,1021.57
2022-12-19T04:40:45.726Z,1021.59
2022-12-19T04:41:45.781Z,1021.62
2022-12-19T04:42:45.703Z,1021.53
2022-12-19T04:43:45.701Z,1021.50
2022-12-19T04:44:45.675Z,1021.40
2022-12-19T04:45:45.671Z,1021.36
2022-12-19T04:46:45.709Z,1021.42
2022-12-19T04:47:45.654Z,1021.43
2022-12-19T04:48:45.657Z,1021.33
2022-12-19T04:49:45.630Z,1021.34
2022-12-19T04:50:45.624Z,1021.27
2022-12-19T04:51:45.612Z,1021.25
2022-12-19T04:52:45.630Z,1021.22
2022-12-19T04:53:45.607Z,1021.24
2022-12-19T04:54:45.726Z,1021.28
2022-12-19T04:55:45.720Z,1021.29
2022-12-19T04:56:45.556Z,1021.30
2022-12-19T04:57:45.671Z,1021.31
2022-12-19T04:58:45.553Z,1021.28
2022-12-19T04:59:45.547Z,1021.38
2022-12-19T05:00:45.521Z,1021.21
2022-12-19T05:01:45.680Z,1021.29
2022-12-19T05:02:45.696Z,1021.30
2022-12-19T05:03:49.993Z,1021.26
2022-12-19T05:04:46.509Z,1021.36
2022-12-19T05:05:45.465Z,1021.39
2022-12-19T05:06:45.511Z,1021.33
2022-12-19T05:07:45.446Z,1021.36
2022-12-19T05:08:45.436Z,1021.37
2022-12-19T05:09:45.428Z,1021.38
2022-12-19T05:10:45.431Z,1021.36
2022-12-19T05:11:45.534Z,1021.41
2022-12-19T05:12:45.413Z,1021.44
2022-12-19T05:13:45.380Z,1021.28
2022-12-19T05:14:45.378Z,1021.28
2022-12-19T05:15:45.414Z,1021.30
2022-12-19T05:16:45.360Z,1021.26
2022-12-19T05:17:45.355Z,1021.28
2022-12-19T05:18:45.354Z,1021.26
2022-12-19T05:19:45.329Z,1021.21
2022-12-19T05:20:45.304Z,1021.24
2022-12-19T05:21:45.313Z,1021.25
2022-12-19T05:22:45.290Z,1021.27
2022-12-19T05:23:45.287Z,1021.31
2022-12-19T05:24:45.264Z,1021.28
2022-12-19T05:25:45.267Z,1021.31
2022-12-19T05:26:45.247Z,1021.31
2022-12-19T05:27:45.366Z,1021.25
2022-12-19T05:28:45.610Z,1021.17
2022-12-19T05:29:45.219Z,1021.21
2022-12-19T05:30:50.580Z,1021.22
2022-12-19T05:31:46.266Z,1021.07
2022-12-19T05:32:45.376Z,1021.08
2022-12-19T05:33:45.263Z,1021.08
2022-12-19T05:34:45.165Z,1021.01
2022-12-19T05:35:45.152Z,1020.99
2022-12-19T05:36:45.349Z,1021.03
2022-12-19T05:37:45.125Z,1021.04
2022-12-19T05:38:45.116Z,1021.07
2022-12-19T05:39:45.215Z,1021.02
2022-12-19T05:40:45.115Z,1021.03
2022-12-19T05:41:48.842Z,1020.99
2022-12-19T05:42:45.089Z,1021.07
2022-12-19T05:43:45.189Z,1020.97
2022-12-19T05:44:45.072Z,1020.99
2022-12-19T05:45:45.069Z,1020.98
2022-12-19T05:46:45.146Z,1020.92
2022-12-19T05:47:45.030Z,1020.92
2022-12-19T05:48:45.010Z,1020.91
2022-12-19T05:49:45.014Z,1020.89
2022-12-19T05:50:44.998Z,1020.85
2022-12-19T05:51:44.990Z,1020.93
2022-12-19T05:52:44.988Z,1020.89
2022-12-19T05:53:44.994Z,1020.92
2022-12-19T05:54:44.993Z,1020.92
2022-12-19T05:55:44.944Z,1020.85
2022-12-19T05:56:44.947Z,1020.83
2022-12-19T05:57:44.969Z,1020.86
2022-12-19T05:58:44.930Z,1020.85
2022-12-19T05:59:45.031Z,1020.79
2022-12-19T06:00:44.906Z,1020.81
2022-12-19T06:01:45.052Z,1020.78
2022-12-19T06:02:44.953Z,1020.75
2022-12-19T06:03:44.888Z,1020.72
2022-12-19T06:04:44.866Z,1020.69
2022-12-19T06:05:44.841Z,1020.64
2022-12-19T06:06:44.840Z,1020.65
2022-12-19T06:07:44.831Z,1020.58
2022-12-19T06:08:44.829Z,1020.60
2022-12-19T06:09:44.816Z,1020.56
2022-12-19T06:10:44.813Z,1020.57
2022-12-19T06:11:44.783Z,1020.57
2022-12-19T06:12:44.796Z,1020.51
2022-12-19T06:13:44.784Z,1020.48
2022-12-19T06:14:44.746Z,1020.48
2022-12-19T06:15:44.875Z,1020.54
2022-12-19T06:16:44.814Z,1020.47
2022-12-19T06:17:44.718Z,1020.42
2022-12-19T06:18:45.552Z,1020.45
2022-12-19T06:19:44.714Z,1020.38
2022-12-19T06:20:44.705Z,1020.44
2022-12-19T06:21:48.271Z,1020.43
2022-12-19T06:22:44.659Z,1020.39
2022-12-19T06:23:44.678Z,1020.38
2022-12-19T06:24:44.637Z,1020.44
2022-12-19T06:25:44.643Z,1020.35
2022-12-19T06:26:44.700Z,1020.48
2022-12-19T06:27:44.619Z,1020.39
2022-12-19T06:28:44.601Z,1020.36
2022-12-19T06:29:44.606Z,1020.38
2022-12-19T06:30:44.586Z,1020.40
2022-12-19T06:31:44.792Z,1020.36
2022-12-19T06:32:44.575Z,1020.35
2022-12-19T06:33:44.607Z,1020.38
2022-12-19T06:35:03.670Z,1020.37
2022-12-19T06:35:45.524Z,1020.38
2022-12-19T06:36:44.579Z,1020.34
2022-12-19T06:37:44.555Z,1020.27
2022-12-19T06:38:44.531Z,1020.29
2022-12-19T06:39:44.547Z,1020.34
2022-12-19T06:40:44.556Z,1020.28
2022-12-19T06:41:44.541Z,1020.33
2022-12-19T06:42:44.506Z,1020.36
2022-12-19T06:43:46.923Z,1020.35
2022-12-19T06:44:44.444Z,1020.26
2022-12-19T06:45:44.484Z,1020.35
2022-12-19T06:46:44.421Z,1020.25
2022-12-19T06:47:44.579Z,1020.25
2022-12-19T06:48:44.415Z,1020.26
2022-12-19T06:49:44.396Z,1020.28
2022-12-19T06:50:44.363Z,1020.33
2022-12-19T06:51:44.382Z,1020.35
2022-12-19T06:52:44.350Z,1020.42
2022-12-19T06:53:44.352Z,1020.40
2022-12-19T06:54:44.327Z,1020.45
2022-12-19T06:55:44.318Z,1020.45
2022-12-19T06:56:44.319Z,1020.44
2022-12-19T06:57:44.346Z,1020.52
2022-12-19T06:58:44.310Z,1020.50
2022-12-19T06:59:44.296Z,1020.53
2022-12-19T07:00:44.328Z,1020.52
2022-12-19T07:01:44.427Z,1020.57
2022-12-19T07:02:44.382Z,1020.54
2022-12-19T07:03:44.360Z,1020.44
2022-12-19T07:04:44.236Z,1020.53
2022-12-19T07:05:44.215Z,1020.46
2022-12-19T07:06:48.891Z,1020.42
2022-12-19T07:07:45.202Z,1020.41
2022-12-19T07:08:44.202Z,1020.52
2022-12-19T07:09:44.175Z,1020.48
2022-12-19T07:10:44.245Z,1020.52
2022-12-19T07:11:44.161Z,1020.42
2022-12-19T07:12:44.148Z,1020.44
2022-12-19T07:13:44.143Z,1020.40
2022-12-19T07:14:46.767Z,1020.38
2022-12-19T07:15:45.119Z,1020.45
2022-12-19T07:16:44.136Z,1020.43
2022-12-19T07:17:44.109Z,1020.44
2022-12-19T07:18:44.123Z,1020.45
2022-12-19T07:19:44.228Z,1020.40
2022-12-19T07:20:45.413Z,1020.42
2022-12-19T07:21:44.050Z,1020.41
2022-12-19T07:22:44.027Z,1020.48
2022-12-19T07:23:44.024Z,1020.43
2022-12-19T07:24:44.018Z,1020.40
2022-12-19T07:25:44.016Z,1020.38
2022-12-19T07:26:43.988Z,1020.31
2022-12-19T07:27:43.979Z,1020.36
2022-12-19T07:28:43.977Z,1020.28
2022-12-19T07:29:43.970Z,1020.26
2022-12-19T07:30:43.960Z,1020.28
2022-12-19T07:31:44.046Z,1020.25
2022-12-19T07:32:43.986Z,1020.35
2022-12-19T07:33:43.926Z,1020.34
2022-12-19T07:34:43.916Z,1020.42
2022-12-19T07:35:44.020Z,1020.30
2022-12-19T07:36:43.905Z,1020.33
2022-12-19T07:37:43.939Z,1020.36
2022-12-19T07:38:43.882Z,1020.40
2022-12-19T07:39:43.855Z,1020.32
2022-12-19T07:40:43.890Z,1020.29
2022-12-19T07:41:43.854Z,1020.19
2022-12-19T07:42:43.837Z,1020.19
2022-12-19T07:43:43.827Z,1020.22
2022-12-19T07:44:43.808Z,1020.15
2022-12-19T07:45:43.918Z,1020.17
2022-12-19T07:46:43.812Z,1020.13
2022-12-19T07:47:43.780Z,1020.16
2022-12-19T07:48:44.097Z,1020.17
2022-12-19T07:49:43.788Z,1020.15
2022-12-19T07:50:43.747Z,1020.21
2022-12-19T07:51:43.847Z,1020.10
2022-12-19T07:52:43.729Z,1020.16
2022-12-19T07:53:43.720Z,1020.17
2022-12-19T07:54:43.712Z,1020.17
2022-12-19T07:55:43.701Z,1020.23
2022-12-19T07:56:43.692Z,1020.22
2022-12-19T07:57:43.690Z,1020.22
2022-12-19T07:58:43.661Z,1020.26
2022-12-19T07:59:43.655Z,1020.19
2022-12-19T08:00:43.691Z,1020.30
2022-12-19T08:01:43.729Z,1020.28
2022-12-19T08:02:43.768Z,1020.24
2022-12-19T08:03:43.609Z,1020.14
2022-12-19T08:04:43.616Z,1020.05
2022-12-19T08:05:43.591Z,1020.10
2022-12-19T08:06:43.590Z,1020.13
2022-12-19T08:07:43.707Z,1020.04
2022-12-19T08:08:43.574Z,1020.11
2022-12-19T08:09:43.543Z,1020.08
2022-12-19T08:10:43.535Z,1020.11
2022-12-19T08:11:43.531Z,1020.08
2022-12-19T08:12:43.527Z,1020.06
2022-12-19T08:13:46.701Z,1019.96
2022-12-19T08:14:43.516Z,1019.87
2022-12-19T08:15:43.488Z,1019.97
2022-12-19T08:17:11.458Z,1019.97
2022-12-19T08:17:44.584Z,1020.02
2022-12-19T08:18:43.466Z,1019.99
2022-12-19T08:19:43.453Z,1020.00
2022-12-19T08:20:43.458Z,1019.88
2022-12-19T08:21:43.430Z,1019.94
2022-12-19T08:22:43.422Z,1019.92
2022-12-19T08:23:43.521Z,1019.85
2022-12-19T08:24:43.406Z,1019.91
2022-12-19T08:25:43.398Z,1019.88
2022-12-19T08:26:47.527Z,1019.86
2022-12-19T08:27:43.378Z,1019.90
2022-12-19T08:28:43.373Z,1019.91
2022-12-19T08:29:43.338Z,1019.86
2022-12-19T08:30:43.365Z,1019.80
2022-12-19T08:31:43.343Z,1019.89
2022-12-19T08:32:43.320Z,1019.73
2022-12-19T08:33:43.297Z,1019.77
2022-12-19T08:34:43.281Z,1019.69
2022-12-19T08:35:43.288Z,1019.79
2022-12-19T08:36:43.280Z,1019.75
2022-12-19T08:37:43.258Z,1019.77
2022-12-19T08:38:43.274Z,1019.74
2022-12-19T08:39:43.353Z,1019.71
2022-12-19T08:40:47.333Z,1019.77
2022-12-19T08:41:43.230Z,1019.70
2022-12-19T08:42:43.209Z,1019.71
2022-12-19T08:43:43.196Z,1019.71
2022-12-19T08:44:43.184Z,1019.74
2022-12-19T08:45:43.243Z,1019.69
2022-12-19T08:46:49.492Z,1019.62
2022-12-19T08:47:44.181Z,1019.59
2022-12-19T08:48:43.143Z,1019.59
2022-12-19T08:49:43.153Z,1019.53
2022-12-19T08:50:43.145Z,1019.56
2022-12-19T08:51:43.120Z,1019.58
2022-12-19T08:52:43.100Z,1019.60
2022-12-19T08:53:43.119Z,1019.56
2022-12-19T08:54:43.099Z,1019.64
2022-12-19T08:55:43.184Z,1019.62
2022-12-19T08:56:46.133Z,1019.57
2022-12-19T08:57:43.065Z,1019.60
2022-12-19T08:58:43.057Z,1019.64
2022-12-19T08:59:43.023Z,1019.63
2022-12-19T09:00:45.532Z,1019.63
2022-12-19T09:01:44.095Z,1019.67
2022-12-19T09:02:43.218Z,1019.63
2022-12-19T09:05:26.048Z,1019.59
2022-12-19T09:05:54.533Z,1019.56
2022-12-19T09:06:05.258Z,1019.67
2022-12-19T09:06:44.050Z,1019.55
2022-12-19T09:07:42.950Z,1019.56
2022-12-19T09:08:42.939Z,1019.58
2022-12-19T09:09:42.941Z,1019.49
2022-12-19T09:10:42.917Z,1019.50
2022-12-19T09:11:47.273Z,1019.48
2022-12-19T09:12:43.899Z,1019.45
2022-12-19T09:13:42.892Z,1019.52
2022-12-19T09:14:42.880Z,1019.44
2022-12-19T09:15:42.868Z,1019.50
2022-12-19T09:16:42.916Z,1019.45
2022-12-19T09:17:42.848Z,1019.44
2022-12-19T09:18:48.194Z,1019.40
2022-12-19T09:19:47.099Z,1019.33
2022-12-19T09:20:42.849Z,1019.33
2022-12-19T09:21:42.837Z,1019.38
2022-12-19T09:22:42.797Z,1019.36
2022-12-19T09:23:42.797Z,1019.40
2022-12-19T09:24:42.762Z,1019.34
2022-12-19T09:25:42.780Z,1019.33
2022-12-19T09:26:42.753Z,1019.19
2022-12-19T09:28:17.913Z,1019.19
2022-12-19T09:28:43.724Z,1019.18
2022-12-19T09:29:42.724Z,1019.21
2022-12-19T09:30:42.756Z,1019.21
2022-12-19T09:31:42.691Z,1019.19
2022-12-19T09:32:42.691Z,1019.20
2022-12-19T09:33:43.806Z,1019.14
2022-12-19T09:34:42.673Z,1019.08
2022-12-19T09:35:42.669Z,1019.07
2022-12-19T09:36:42.647Z,1019.08
2022-12-19T09:37:42.634Z,1019.04
2022-12-19T09:38:42.617Z,1018.97
2022-12-19T09:39:42.668Z,1018.93
2022-12-19T09:40:42.602Z,1018.97
2022-12-19T09:41:42.653Z,1018.95
2022-12-19T09:42:42.577Z,1018.92
2022-12-19T09:43:42.704Z,1018.90
2022-12-19T09:44:42.553Z,1018.91
2022-12-19T09:45:42.591Z,1018.85
2022-12-19T09:46:42.568Z,1018.80
2022-12-19T09:47:42.579Z,1018.75
2022-12-19T09:48:42.518Z,1018.68
2022-12-19T09:49:42.522Z,1018.70
2022-12-19T09:50:42.505Z,1018.65
2022-12-19T09:51:42.477Z,1018.70
2022-12-19T09:52:42.489Z,1018.68
2022-12-19T09:53:42.473Z,1018.64
2022-12-19T09:54:42.474Z,1018.62
2022-12-19T09:55:42.495Z,1018.59
2022-12-19T09:56:45.563Z,1018.52
2022-12-19T09:57:42.453Z,1018.56
2022-12-19T09:58:42.435Z,1018.62
2022-12-19T09:59:47.970Z,1018.60
2022-12-19T10:00:43.401Z,1018.55
2022-12-19T10:01:42.506Z,1018.55
2022-12-19T10:02:42.610Z,1018.61
2022-12-19T10:03:42.440Z,1018.49
2022-12-19T10:04:42.351Z,1018.61
2022-12-19T10:06:52.574Z,1018.56
2022-12-19T10:07:11.013Z,1018.46
2022-12-19T10:08:07.220Z,1018.55
2022-12-19T10:09:03.069Z,1018.53
2022-12-19T10:11:59.387Z,1018.55
2022-12-19T10:12:36.560Z,1018.48
2022-12-19T10:12:45.697Z,1018.50
2022-12-19T10:12:51.964Z,1018.39
2022-12-19T10:13:43.275Z,1018.26
2022-12-19T10:14:42.248Z,1018.29
2022-12-19T10:15:42.383Z,1018.31
2022-12-19T10:16:52.007Z,1018.23
2022-12-19T10:17:43.217Z,1018.29
2022-12-19T10:18:42.197Z,1018.28
2022-12-19T10:19:42.207Z,1018.23
2022-12-19T10:20:42.213Z,1018.25
2022-12-19T10:22:43.162Z,1018.16
2022-12-19T10:23:42.158Z,1018.14
2022-12-19T10:24:42.144Z,1018.16
2022-12-19T10:25:42.175Z,1018.14
2022-12-19T10:26:42.118Z,1018.15
2022-12-19T10:27:44.271Z,1018.09
2022-12-19T10:28:43.115Z,1018.05
2022-12-19T10:29:42.100Z,1018.07
2022-12-19T10:30:42.384Z,1017.95
2022-12-19T10:31:42.212Z,1018.01
2022-12-19T10:32:42.053Z,1018.00
2022-12-19T10:33:42.057Z,1017.97
2022-12-19T10:34:42.117Z,1017.97
2022-12-19T10:35:42.035Z,1017.93
2022-12-19T10:37:12.878Z,1017.99
2022-12-19T10:37:49.135Z,1017.95
2022-12-19T10:38:47.563Z,1017.96
2022-12-19T10:39:43.040Z,1017.93
2022-12-19T10:40:41.977Z,1017.98
2022-12-19T10:41:44.306Z,1017.93
2022-12-19T10:42:41.955Z,1018.02
2022-12-19T10:43:44.402Z,1017.94
2022-12-19T10:44:41.967Z,1018.00
2022-12-19T10:45:41.925Z,1017.95
2022-12-19T10:46:42.021Z,1017.90
2022-12-19T10:47:42.057Z,1017.84
2022-12-19T10:48:41.920Z,1017.91
2022-12-19T10:49:41.900Z,1017.83
2022-12-19T10:50:41.919Z,1017.88
2022-12-19T10:51:41.851Z,1017.76
2022-12-19T10:52:41.875Z,1017.81
2022-12-19T10:53:41.843Z,1017.73
2022-12-19T10:54:41.884Z,1017.72
2022-12-19T10:55:41.872Z,1017.70
2022-12-19T10:56:41.824Z,1017.75
2022-12-19T10:57:41.799Z,1017.75
2022-12-19T10:58:41.808Z,1017.77
2022-12-19T10:59:41.834Z,1017.76
2022-12-19T11:00:41.775Z,1017.74
2022-12-19T11:01:41.889Z,1017.80
2022-12-19T11:02:41.926Z,1017.85
2022-12-19T11:03:41.967Z,1017.73
2022-12-19T11:04:41.757Z,1017.70
2022-12-19T11:05:41.724Z,1017.77
2022-12-19T11:06:41.695Z,1017.83
2022-12-19T11:07:41.691Z,1017.75
2022-12-19T11:08:41.695Z,1017.71
2022-12-19T11:09:43.310Z,1017.57
2022-12-19T11:11:22.928Z,1017.64
2022-12-19T11:15:37.216Z,1017.56
2022-12-19T11:16:33.697Z,1017.61
2022-12-19T11:18:55.580Z,1017.58
2022-12-19T11:20:03.111Z,1017.52
2022-12-19T11:22:06.960Z,1017.55
2022-12-19T11:22:43.226Z,1017.58
2022-12-19T11:28:30.110Z,1017.55
2022-12-19T11:29:16.046Z,1017.58
2022-12-19T11:29:16.786Z,1017.55
2022-12-19T11:29:30.747Z,1017.51
2022-12-19T11:29:30.747Z,1017.49
2022-12-19T11:29:32.463Z,1017.52
2022-12-19T11:29:44.433Z,1017.52
2022-12-19T11:29:46.776Z,1017.49
2022-12-19T11:29:55.166Z,1017.53
2022-12-19T11:29:55.843Z,1017.54
2022-12-19T11:30:44.125Z,1017.49
2022-12-19T11:30:48.178Z,1017.45
2022-12-19T11:32:44.998Z,1017.44
2022-12-19T11:33:41.488Z,1017.46
2022-12-19T11:34:41.433Z,1017.42
2022-12-19T11:35:41.519Z,1017.43
2022-12-19T11:36:41.388Z,1017.42
2022-12-19T11:37:41.369Z,1017.33
2022-12-19T11:38:41.364Z,1017.42
2022-12-19T11:39:41.375Z,1017.34
2022-12-19T11:40:48.439Z,1017.31
2022-12-19T11:41:42.341Z,1017.40
2022-12-19T11:42:41.312Z,1017.28
2022-12-19T11:43:44.523Z,1017.40
2022-12-19T11:44:41.306Z,1017.31
2022-12-19T11:45:41.282Z,1017.28
2022-12-19T11:46:41.277Z,1017.29
2022-12-19T11:47:41.279Z,1017.20
2022-12-19T11:48:41.262Z,1017.20
2022-12-19T11:49:41.249Z,1017.23
2022-12-19T11:50:41.226Z,1017.19
2022-12-19T11:51:41.342Z,1017.20
2022-12-19T11:53:42.211Z,1017.21
2022-12-19T11:54:41.208Z,1017.10
2022-12-19T11:55:41.182Z,1017.17
2022-12-19T11:56:41.179Z,1017.14
2022-12-19T11:57:41.169Z,1017.17
2022-12-19T11:58:41.166Z,1017.10
2022-12-19T11:59:41.140Z,1017.13
2022-12-19T12:00:41.135Z,1017.05
2022-12-19T12:01:41.215Z,1017.07
2022-12-19T12:02:41.111Z,1017.09
2022-12-19T12:03:41.232Z,1017.06
2022-12-19T12:04:42.151Z,1017.05
2022-12-19T12:05:41.077Z,1017.03
2022-12-19T12:06:45.290Z,1017.08
2022-12-19T12:09:15.525Z,1017.17
2022-12-19T12:10:22.723Z,1017.06
2022-12-19T12:11:58.414Z,1017.10
2022-12-19T12:15:51.299Z,1017.10